Time;durP1;ratioP1;P1;durP2;ratioP2;P2;SDS_P1;SDS_P2;PMS_P1;PMS_P2;Temp;Humidity;BMP_temperature;BMP_pressure;BME280_temperature;BME280_humidity;BME280_pressure;Samples;Min_cycle;Max_cycle;Signal;HPM_P1;HPM_P2
2022/02/24 00:00:55;;;;;;;8.20;5.50;;;8.70;94.40;;;;;;5114629;27;20238;-66
2022/02/24 00:03:24;;;;;;;8.38;3.95;;;8.60;94.30;;;;;;5115277;27;20247;-66
2022/02/24 00:05:53;;;;;;;5.60;4.13;;;8.60;94.30;;;;;;5110095;27;20231;-66
2022/02/24 00:08:20;;;;;;;7.25;3.75;;;8.50;94.40;;;;;;5113997;27;20234;-66
2022/02/24 00:10:46;;;;;;;9.30;4.63;;;8.50;94.60;;;;;;5105140;28;20227;-66
2022/02/24 00:13:15;;;;;;;9.13;4.35;;;8.40;94.70;;;;;;5113621;27;20219;-66
2022/02/24 00:15:42;;;;;;;7.18;4.88;;;8.40;94.60;;;;;;5114285;27;20233;-66
2022/02/24 00:18:09;;;;;;;6.10;4.20;;;8.30;94.60;;;;;;5100694;28;20225;-66
2022/02/24 00:20:37;;;;;;;6.50;4.22;;;8.30;94.70;;;;;;5114615;28;20327;-66
2022/02/24 00:23:04;;;;;;;6.72;4.70;;;8.30;94.70;;;;;;5100169;28;20219;-66
2022/02/24 00:25:31;;;;;;;6.95;4.30;;;8.20;94.70;;;;;;5114643;27;20661;-66
2022/02/24 00:27:58;;;;;;;8.38;4.65;;;8.30;94.80;;;;;;5108141;28;20227;-66
2022/02/24 00:30:25;;;;;;;3.97;3.50;;;8.20;94.80;;;;;;5106917;28;20238;-66
2022/02/24 00:32:51;;;;;;;7.38;3.92;;;8.10;94.80;;;;;;5100514;28;20219;-66
2022/02/24 00:35:18;;;;;;;10.32;4.20;;;8.10;95.00;;;;;;5101471;28;20219;-66
2022/02/24 00:37:46;;;;;;;6.63;3.60;;;8.10;94.90;;;;;;5107206;27;20219;-66
2022/02/24 00:40:13;;;;;;;4.63;4.10;;;8.00;94.90;;;;;;5106689;28;20224;-66
2022/02/24 00:42:40;;;;;;;4.95;3.40;;;8.00;94.90;;;;;;5107247;28;20303;-66
2022/02/24 00:45:08;;;;;;;8.55;4.50;;;8.00;95.10;;;;;;5107370;28;20998;-66
2022/02/24 00:47:35;;;;;;;6.57;4.15;;;7.90;95.00;;;;;;5113714;28;20223;-66
2022/02/24 00:50:02;;;;;;;6.95;4.50;;;7.90;95.10;;;;;;5099747;27;20239;-65
2022/02/24 00:52:28;;;;;;;9.40;4.82;;;7.90;95.20;;;;;;5107171;28;20228;-66
2022/02/24 00:57:43;;;;;;;7.05;4.22;;;7.80;95.30;;;;;;5099601;28;20284;-65
2022/02/24 01:00:11;;;;;;;9.45;3.85;;;7.80;95.20;;;;;;5100045;28;20235;-66
2022/02/24 01:02:38;;;;;;;7.82;3.55;;;7.80;95.30;;;;;;5102679;28;20749;-66
2022/02/24 01:05:05;;;;;;;7.22;4.30;;;7.80;95.30;;;;;;5110670;27;20303;-66
2022/02/24 01:07:32;;;;;;;8.73;3.90;;;7.80;95.20;;;;;;5113418;28;20219;-66
2022/02/24 01:10:00;;;;;;;7.68;4.40;;;7.70;95.10;;;;;;5099561;28;20215;-66
2022/02/24 01:12:27;;;;;;;12.38;4.53;;;7.70;95.30;;;;;;5100564;28;20220;-66
2022/02/24 01:14:54;;;;;;;7.95;3.95;;;7.70;95.20;;;;;;5112626;28;20238;-66
2022/02/24 01:17:21;;;;;;;4.88;3.97;;;7.70;95.30;;;;;;5100368;28;20677;-66
2022/02/24 01:19:48;;;;;;;6.10;4.45;;;7.60;95.30;;;;;;5112436;27;20233;-66
2022/02/24 01:22:16;;;;;;;4.40;4.00;;;7.60;95.40;;;;;;5113485;28;20226;-66
2022/02/24 01:24:43;;;;;;;6.43;3.58;;;7.50;95.30;;;;;;5105541;27;20215;-66
2022/02/24 01:27:11;;;;;;;9.18;3.58;;;7.40;95.50;;;;;;5112856;28;20229;-66
2022/02/24 01:29:38;;;;;;;9.65;4.85;;;7.40;95.70;;;;;;5099554;28;20227;-65
2022/02/24 01:32:05;;;;;;;8.40;5.13;;;7.40;95.80;;;;;;5099040;28;20227;-66
2022/02/24 01:34:33;;;;;;;4.95;3.58;;;7.40;95.70;;;;;;5106148;28;20235;-66
2022/02/24 01:36:59;;;;;;;4.95;3.47;;;7.40;95.80;;;;;;5106203;28;20236;-66
2022/02/24 01:39:26;;;;;;;8.85;4.32;;;7.40;95.80;;;;;;5100037;27;20219;-66
2022/02/24 01:41:54;;;;;;;7.72;4.00;;;7.40;96.00;;;;;;5112605;27;20227;-65
2022/02/24 01:44:24;;;;;;;4.28;3.85;;;7.40;96.10;;;;;;5106024;28;20233;-65
2022/02/24 01:46:52;;;;;;;11.90;6.72;;;7.40;96.10;;;;;;5105625;28;20242;-66
2022/02/24 01:49:22;;;;;;;8.20;6.13;;;7.40;96.10;;;;;;5100316;28;20223;-66
2022/02/24 01:51:49;;;;;;;9.65;6.53;;;7.30;96.20;;;;;;5099099;28;20233;-66
2022/02/24 01:54:16;;;;;;;15.07;6.95;;;7.40;96.20;;;;;;5108473;28;20234;-66
2022/02/24 01:56:43;;;;;;;15.18;9.80;;;7.40;96.10;;;;;;5110768;28;20211;-66
2022/02/24 01:59:10;;;;;;;8.95;4.88;;;7.30;96.10;;;;;;5101277;28;20223;-65
2022/02/24 02:01:38;;;;;;;7.13;4.47;;;7.30;96.00;;;;;;5098416;28;20228;-66
2022/02/24 02:04:05;;;;;;;7.30;4.25;;;7.30;96.20;;;;;;5102921;28;20234;-66
2022/02/24 02:06:34;;;;;;;7.47;4.00;;;7.30;96.30;;;;;;5108843;27;20219;-66
2022/02/24 02:09:01;;;;;;;8.00;3.40;;;7.20;96.10;;;;;;5112084;27;20231;-65
2022/02/24 02:11:27;;;;;;;7.28;3.95;;;7.20;96.30;;;;;;5102183;28;20227;-66
2022/02/24 02:13:54;;;;;;;8.95;4.30;;;7.10;96.30;;;;;;5100526;28;20629;-66
2022/02/24 02:16:21;;;;;;;5.03;3.70;;;7.10;96.50;;;;;;5112685;28;20219;-66
2022/02/24 02:18:49;;;;;;;6.78;4.35;;;7.10;96.50;;;;;;5105380;27;20468;-66
2022/02/24 02:21:17;;;;;;;9.63;5.93;;;7.10;96.60;;;;;;5112436;28;20963;-66
2022/02/24 02:23:44;;;;;;;9.43;4.97;;;7.00;96.70;;;;;;5098673;28;20211;-66
2022/02/24 02:26:11;;;;;;;8.65;4.13;;;7.10;96.90;;;;;;5112366;27;20233;-66
2022/02/24 02:28:38;;;;;;;10.57;4.70;;;7.10;96.90;;;;;;5107440;28;20216;-66
2022/02/24 02:31:05;;;;;;;4.55;3.45;;;7.00;96.90;;;;;;5103845;28;20234;-66
2022/02/24 02:33:32;;;;;;;5.20;2.97;;;7.00;97.00;;;;;;5098935;28;20724;-66
2022/02/24 02:36:02;;;;;;;6.47;4.18;;;6.90;97.00;;;;;;5100215;28;20224;-66
2022/02/24 02:38:30;;;;;;;10.88;6.30;;;6.90;97.20;;;;;;5105674;28;20298;-66
2022/02/24 02:40:57;;;;;;;12.25;7.55;;;6.90;97.30;;;;;;5104533;28;20233;-66
2022/02/24 02:43:26;;;;;;;13.63;5.70;;;6.90;97.40;;;;;;5098881;28;20221;-66
2022/02/24 02:45:53;;;;;;;7.90;4.68;;;6.90;97.40;;;;;;5098489;28;20568;-66
2022/02/24 02:48:20;;;;;;;5.80;3.92;;;7.00;97.40;;;;;;5099210;28;20568;-66
2022/02/24 02:50:47;;;;;;;6.68;3.60;;;7.00;97.40;;;;;;5111937;28;20230;-66
2022/02/24 02:53:14;;;;;;;4.47;3.95;;;7.00;97.40;;;;;;5098991;28;20231;-66
2022/02/24 02:55:42;;;;;;;6.78;3.58;;;7.00;97.30;;;;;;5098705;28;20224;-66
2022/02/24 02:58:09;;;;;;;5.43;3.80;;;7.00;97.40;;;;;;5104112;28;20226;-66
2022/02/24 03:00:36;;;;;;;6.10;3.47;;;7.00;97.40;;;;;;5105223;28;20247;-66
2022/02/24 03:03:03;;;;;;;3.63;2.95;;;7.00;97.40;;;;;;5099694;28;20223;-66
2022/02/24 03:05:30;;;;;;;4.32;2.88;;;7.00;97.40;;;;;;5098599;28;20226;-66
2022/02/24 03:07:56;;;;;;;4.05;3.10;;;7.00;97.40;;;;;;5111728;27;20544;-66
2022/02/24 03:10:23;;;;;;;7.28;3.38;;;7.00;97.50;;;;;;5110677;28;20219;-66
2022/02/24 03:12:51;;;;;;;12.52;4.20;;;7.00;97.40;;;;;;5095952;28;20674;-66
2022/02/24 03:15:19;;;;;;;4.10;3.40;;;7.00;97.30;;;;;;5109540;27;20226;-66
2022/02/24 03:17:48;;;;;;;6.00;3.60;;;7.00;97.40;;;;;;5107223;28;20270;-66
2022/02/24 03:20:15;;;;;;;6.07;3.65;;;6.90;97.40;;;;;;5111034;28;20231;-66
2022/02/24 03:22:43;;;;;;;6.25;3.63;;;7.00;97.60;;;;;;5106532;28;20224;-66
2022/02/24 03:25:11;;;;;;;5.63;3.47;;;6.90;97.50;;;;;;5111421;27;20249;-66
2022/02/24 03:27:38;;;;;;;4.90;3.00;;;6.90;97.50;;;;;;5115669;28;20611;-66
2022/02/24 03:30:07;;;;;;;6.35;3.30;;;7.00;97.60;;;;;;5101717;28;20227;-66
2022/02/24 03:32:35;;;;;;;5.68;3.30;;;7.00;97.70;;;;;;5104563;28;20220;-66
2022/02/24 03:35:02;;;;;;;6.72;3.97;;;6.90;97.50;;;;;;5108557;27;20223;-66
2022/02/24 03:37:28;;;;;;;7.60;3.42;;;6.90;97.60;;;;;;5106420;28;20669;-66
2022/02/24 03:39:55;;;;;;;5.93;3.50;;;6.90;97.60;;;;;;5101469;28;20219;-66
2022/02/24 03:42:25;;;;;;;9.98;4.07;;;6.90;97.80;;;;;;5103731;28;20251;-66
2022/02/24 03:44:51;;;;;;;7.28;3.97;;;6.80;97.60;;;;;;5108706;28;20215;-66
2022/02/24 03:47:20;;;;;;;6.15;3.78;;;6.80;97.70;;;;;;5106289;27;20303;-66
2022/02/24 03:49:47;;;;;;;7.07;3.17;;;6.80;97.60;;;;;;5101416;28;20231;-67
2022/02/24 03:52:14;;;;;;;6.03;3.90;;;6.80;97.80;;;;;;5102517;28;20220;-66
2022/02/24 03:54:41;;;;;;;4.53;2.80;;;6.80;97.70;;;;;;5108540;27;20227;-66
2022/02/24 03:57:08;;;;;;;4.45;4.03;;;6.80;97.80;;;;;;5106948;27;20642;-66
2022/02/24 03:59:34;;;;;;;6.18;3.20;;;6.80;97.60;;;;;;5101034;28;20222;-66
2022/02/24 04:02:01;;;;;;;4.82;3.92;;;6.80;97.50;;;;;;5114260;27;20257;-66
2022/02/24 04:04:29;;;;;;;5.15;3.00;;;6.70;97.60;;;;;;5114783;28;20234;-66
2022/02/24 04:07:04;;;;;;;4.43;3.33;;;6.70;97.70;;;;;;5114855;27;20215;-66
2022/02/24 04:09:31;;;;;;;8.75;4.10;;;6.70;97.70;;;;;;5101400;28;21038;-67
2022/02/24 04:11:58;;;;;;;5.32;4.00;;;6.80;97.80;;;;;;5114080;27;20227;-67
2022/02/24 04:14:25;;;;;;;4.65;2.97;;;6.70;97.60;;;;;;5114091;27;20219;-67
2022/02/24 04:16:52;;;;;;;4.05;2.90;;;6.80;97.70;;;;;;5114082;28;20230;-67
2022/02/24 04:19:19;;;;;;;9.07;3.45;;;6.80;97.70;;;;;;5109080;27;20223;-67
2022/02/24 04:21:47;;;;;;;10.77;3.10;;;6.80;97.60;;;;;;5113732;28;20223;-65
2022/02/24 04:24:14;;;;;;;5.22;2.55;;;6.70;97.60;;;;;;5102063;28;20234;-66
2022/02/24 04:26:41;;;;;;;7.57;3.00;;;6.80;97.60;;;;;;5113545;28;20215;-66
2022/02/24 04:29:07;;;;;;;5.95;3.15;;;6.70;97.50;;;;;;5113834;27;20227;-67
2022/02/24 04:31:34;;;;;;;6.05;3.00;;;6.80;97.60;;;;;;5113960;27;20233;-66
2022/02/24 04:34:01;;;;;;;5.28;2.95;;;6.80;97.50;;;;;;5105902;28;20227;-66
2022/02/24 04:36:28;;;;;;;5.45;3.45;;;6.70;97.50;;;;;;5107284;28;20223;-66
2022/02/24 04:38:56;;;;;;;4.90;3.03;;;6.70;97.50;;;;;;5102614;28;20541;-65
2022/02/24 04:41:26;;;;;;;6.50;4.43;;;6.70;97.60;;;;;;5100118;28;20232;-65
2022/02/24 04:43:52;;;;;;;5.55;4.80;;;6.70;97.60;;;;;;5108007;28;20230;-66
2022/02/24 04:46:19;;;;;;;10.45;8.10;;;6.80;97.50;;;;;;5113691;27;20231;-67
2022/02/24 04:48:52;;;;;;;8.23;4.65;;;6.80;97.30;;;;;;5103965;28;20223;-67
2022/02/24 04:51:20;;;;;;;5.80;3.53;;;6.80;97.30;;;;;;5106794;28;20235;-66
2022/02/24 04:53:47;;;;;;;4.45;2.80;;;6.80;97.10;;;;;;5104975;27;20699;-66
2022/02/24 04:56:15;;;;;;;4.60;3.97;;;6.80;97.10;;;;;;5111776;28;20210;-66
2022/02/24 04:58:42;;;;;;;7.38;3.33;;;6.70;96.90;;;;;;5114066;28;20219;-66
2022/02/24 05:01:09;;;;;;;7.75;3.55;;;6.80;97.00;;;;;;5099796;28;20552;-66
2022/02/24 05:03:35;;;;;;;3.92;3.53;;;6.80;97.00;;;;;;5101569;28;20234;-66
2022/02/24 05:06:02;;;;;;;6.35;3.63;;;6.80;96.80;;;;;;5106701;28;20220;-66
2022/02/24 05:08:29;;;;;;;4.93;3.60;;;6.80;96.90;;;;;;5105531;28;20227;-64
2022/02/24 05:10:56;;;;;;;3.63;3.20;;;6.80;96.70;;;;;;5113255;27;20296;-64
2022/02/24 05:13:24;;;;;;;7.65;3.60;;;6.80;96.70;;;;;;5113037;27;20220;-64
2022/02/24 05:15:51;;;;;;;5.63;3.92;;;6.80;96.60;;;;;;5113564;28;20249;-64
2022/02/24 05:18:18;;;;;;;11.43;4.47;;;6.90;96.60;;;;;;5106525;27;20219;-64
2022/02/24 05:20:44;;;;;;;5.03;3.40;;;6.80;96.40;;;;;;5113376;28;20223;-64
2022/02/24 05:23:11;;;;;;;4.25;3.65;;;6.90;96.60;;;;;;5099405;28;20572;-64
2022/02/24 05:25:38;;;;;;;6.95;3.53;;;6.90;96.50;;;;;;5112766;28;20977;-64
2022/02/24 05:28:09;;;;;;;5.13;3.15;;;6.80;96.30;;;;;;5100685;28;20253;-64
2022/02/24 05:30:38;;;;;;;9.70;4.95;;;6.80;96.40;;;;;;5105896;28;20721;-63
2022/02/24 05:33:06;;;;;;;6.30;3.97;;;6.90;96.40;;;;;;5106028;28;20561;-65
2022/02/24 05:35:33;;;;;;;5.80;3.33;;;6.90;96.40;;;;;;5103236;28;20246;-63
2022/02/24 05:38:00;;;;;;;7.85;3.35;;;6.80;96.30;;;;;;5112321;28;20233;-63
2022/02/24 05:40:26;;;;;;;6.75;3.45;;;6.70;96.60;;;;;;5099541;28;20262;-64
2022/02/24 05:42:53;;;;;;;4.07;3.22;;;6.70;96.50;;;;;;5112560;28;20218;-63
2022/02/24 05:45:20;;;;;;;4.88;3.00;;;6.70;96.60;;;;;;5107435;27;20227;-63
2022/02/24 05:47:48;;;;;;;5.97;3.50;;;6.70;96.70;;;;;;5113132;28;20223;-63
2022/02/24 05:50:15;;;;;;;4.07;3.10;;;6.70;96.70;;;;;;5098667;28;20231;-65
2022/02/24 05:52:42;;;;;;;12.32;5.43;;;6.70;96.70;;;;;;5112802;28;20700;-64
2022/02/24 05:55:10;;;;;;;20.55;11.25;;;6.70;96.50;;;;;;5110588;28;20215;-64
2022/02/24 05:57:36;;;;;;;13.02;9.80;;;6.70;96.60;;;;;;5092382;28;20661;-64
2022/02/24 06:00:04;;;;;;;9.95;6.68;;;6.70;96.90;;;;;;5091308;28;20681;-65
2022/02/24 06:02:31;;;;;;;6.95;5.15;;;6.70;96.80;;;;;;5090851;28;20220;-64
2022/02/24 06:04:59;;;;;;;3.90;3.50;;;6.70;96.70;;;;;;5091536;28;20224;-64
2022/02/24 06:07:26;;;;;;;8.80;4.78;;;6.80;96.90;;;;;;5091406;28;20602;-64
2022/02/24 06:09:53;;;;;;;3.97;3.00;;;6.80;96.80;;;;;;5091939;28;20696;-64
2022/02/24 06:12:20;;;;;;;6.00;3.80;;;6.80;96.60;;;;;;5104232;27;20318;-64
2022/02/24 06:14:47;;;;;;;5.97;3.60;;;6.80;96.60;;;;;;5112988;27;20227;-64
2022/02/24 06:17:14;;;;;;;6.00;3.10;;;6.80;96.60;;;;;;5112843;27;20238;-65
2022/02/24 06:19:42;;;;;;;6.03;3.28;;;6.80;96.40;;;;;;5112311;27;20223;-62
2022/02/24 06:22:10;;;;;;;4.15;3.00;;;6.80;96.50;;;;;;5112794;27;20530;-65
2022/02/24 06:24:37;;;;;;;4.20;3.60;;;6.80;96.60;;;;;;5112311;27;20226;-63
2022/02/24 06:27:05;;;;;;;7.85;3.00;;;6.80;96.60;;;;;;5112988;27;20220;-63
2022/02/24 06:29:31;;;;;;;7.38;3.88;;;6.90;96.60;;;;;;5112300;27;20218;-63
2022/02/24 06:31:59;;;;;;;6.88;3.97;;;6.90;96.60;;;;;;5112234;27;20683;-64
2022/02/24 06:34:29;;;;;;;12.30;5.90;;;6.90;96.60;;;;;;5112222;27;20219;-64
2022/02/24 06:37:01;;;;;;;6.30;3.63;;;6.90;96.50;;;;;;5112563;27;20236;-64
2022/02/24 06:39:31;;;;;;;4.30;3.13;;;7.00;96.40;;;;;;5111879;27;20280;-64
2022/02/24 06:41:57;;;;;;;6.95;3.53;;;7.00;96.50;;;;;;5112289;27;20231;-64
2022/02/24 06:44:24;;;;;;;6.40;4.00;;;6.90;96.60;;;;;;5112376;27;20227;-64
2022/02/24 06:46:51;;;;;;;6.15;4.82;;;6.90;96.50;;;;;;5112589;27;20535;-64
2022/02/24 06:49:18;;;;;;;6.70;4.10;;;6.90;96.60;;;;;;5115318;27;20219;-64
2022/02/24 06:51:45;;;;;;;7.70;4.93;;;6.90;96.60;;;;;;5116193;27;20925;-64
2022/02/24 06:54:12;;;;;;;11.85;4.47;;;7.00;96.60;;;;;;5116368;27;20230;-65
2022/02/24 06:56:40;;;;;;;4.82;3.97;;;7.10;96.50;;;;;;5115842;27;20223;-64
2022/02/24 06:59:07;;;;;;;5.43;3.75;;;7.00;96.50;;;;;;5116518;27;20239;-64
2022/02/24 07:01:34;;;;;;;9.77;4.15;;;7.00;96.30;;;;;;5115626;27;20235;-64
2022/02/24 07:04:01;;;;;;;8.15;3.50;;;7.00;96.40;;;;;;5116285;27;20227;-64
2022/02/24 07:06:28;;;;;;;10.15;5.25;;;7.00;96.50;;;;;;5115813;27;20243;-64
2022/02/24 07:08:56;;;;;;;8.85;6.63;;;7.00;96.50;;;;;;5116130;27;20227;-65
2022/02/24 07:11:23;;;;;;;12.60;9.07;;;7.10;96.50;;;;;;5115880;27;20231;-65
2022/02/24 07:13:51;;;;;;;11.35;6.35;;;7.10;96.60;;;;;;5116120;27;20231;-63
2022/02/24 07:16:19;;;;;;;6.97;5.78;;;7.10;96.50;;;;;;5116096;27;20301;-63
2022/02/24 07:18:46;;;;;;;7.68;4.15;;;7.10;96.30;;;;;;5115591;27;20356;-64
2022/02/24 07:21:13;;;;;;;8.75;4.25;;;7.20;96.30;;;;;;5116042;27;20239;-65
2022/02/24 07:23:40;;;;;;;7.30;4.72;;;7.20;96.50;;;;;;5115333;27;20545;-65
2022/02/24 07:26:09;;;;;;;9.15;3.80;;;7.20;96.60;;;;;;5116174;27;20233;-65
2022/02/24 07:28:36;;;;;;;5.05;3.42;;;7.30;96.60;;;;;;5115472;27;20227;-65
2022/02/24 07:31:05;;;;;;;6.57;4.40;;;7.40;96.50;;;;;;5115701;27;20700;-64
2022/02/24 07:33:33;;;;;;;4.07;2.90;;;7.30;96.00;;;;;;5100313;27;20301;-64
2022/02/24 07:36:00;;;;;;;8.45;4.35;;;7.40;96.20;;;;;;5095329;28;20228;-64
2022/02/24 07:38:27;;;;;;;6.47;4.10;;;7.40;96.20;;;;;;5094806;28;20230;-64
2022/02/24 07:40:54;;;;;;;6.93;4.25;;;7.50;96.10;;;;;;5095246;28;20694;-64
2022/02/24 07:43:21;;;;;;;5.93;4.20;;;7.50;95.90;;;;;;5095102;28;20223;-64
2022/02/24 07:45:48;;;;;;;4.65;3.90;;;7.50;95.90;;;;;;5094595;28;20226;-64
2022/02/24 07:48:16;;;;;;;7.55;4.05;;;7.50;96.00;;;;;;5095185;28;20232;-63
2022/02/24 07:50:43;;;;;;;8.25;4.60;;;7.60;96.10;;;;;;5094381;28;20234;-64
2022/02/24 07:53:09;;;;;;;6.68;3.90;;;7.60;96.20;;;;;;5094858;28;20223;-64
2022/02/24 07:55:38;;;;;;;4.57;3.72;;;7.70;96.10;;;;;;5094574;28;20224;-64
2022/02/24 07:58:05;;;;;;;13.43;8.02;;;7.70;96.10;;;;;;5114796;27;20231;-64
2022/02/24 08:00:32;;;;;;;12.45;8.02;;;7.70;95.90;;;;;;5113740;27;20231;-64
2022/02/24 08:02:59;;;;;;;5.25;3.58;;;7.70;96.00;;;;;;5115386;27;20258;-64
2022/02/24 08:05:27;;;;;;;6.40;3.30;;;7.70;96.40;;;;;;5114829;27;20234;-64
2022/02/24 08:07:54;;;;;;;5.30;2.58;;;7.70;96.10;;;;;;5115097;27;20311;-64
2022/02/24 08:10:22;;;;;;;8.55;3.40;;;7.80;96.10;;;;;;5114996;27;20227;-64
2022/02/24 08:12:50;;;;;;;12.23;5.93;;;7.90;96.10;;;;;;5114539;27;20223;-65
2022/02/24 08:15:19;;;;;;;8.45;7.03;;;7.90;95.90;;;;;;5115129;27;20227;-64
2022/02/24 08:17:47;;;;;;;8.18;5.90;;;7.90;95.80;;;;;;5114479;27;20626;-64
2022/02/24 08:20:14;;;;;;;8.77;3.72;;;7.90;95.80;;;;;;5114833;27;20284;-64
2022/02/24 08:22:44;;;;;;;6.07;4.65;;;8.00;95.80;;;;;;5114404;27;20231;-64
2022/02/24 08:25:14;;;;;;;5.38;3.53;;;8.00;95.70;;;;;;5114754;27;20605;-64
2022/02/24 08:27:41;;;;;;;3.75;3.42;;;8.00;95.70;;;;;;5114228;27;20250;-64
2022/02/24 08:30:11;;;;;;;9.57;3.85;;;8.00;95.70;;;;;;5114447;27;20227;-64
2022/02/24 08:32:39;;;;;;;9.02;4.35;;;8.00;95.60;;;;;;5114407;27;20234;-64
2022/02/24 08:35:07;;;;;;;7.88;4.63;;;8.10;95.90;;;;;;5114582;27;20222;-64
2022/02/24 08:37:34;;;;;;;9.15;3.90;;;8.10;95.70;;;;;;5114028;27;20572;-64
2022/02/24 08:40:03;;;;;;;4.35;3.55;;;8.20;95.70;;;;;;5114457;27;20284;-64
2022/02/24 08:42:30;;;;;;;9.38;3.38;;;8.30;95.70;;;;;;5113944;27;20227;-64
2022/02/24 08:44:57;;;;;;;6.40;3.20;;;8.30;95.70;;;;;;5114238;27;20230;-64
2022/02/24 08:47:25;;;;;;;3.42;3.00;;;8.40;95.80;;;;;;5114544;27;20511;-64
2022/02/24 08:49:52;;;;;;;8.85;3.00;;;8.40;95.60;;;;;;5113658;27;20234;-64
2022/02/24 08:52:19;;;;;;;11.60;3.50;;;8.40;95.50;;;;;;5114221;27;20219;-64
2022/02/24 08:54:46;;;;;;;8.60;4.68;;;8.50;95.50;;;;;;5113752;27;20242;-64
2022/02/24 08:57:15;;;;;;;5.75;3.65;;;8.60;95.50;;;;;;5101342;27;20247;-64
2022/02/24 08:59:43;;;;;;;7.70;3.58;;;8.60;95.50;;;;;;5093287;28;20235;-64
2022/02/24 09:02:10;;;;;;;4.38;2.88;;;8.70;95.50;;;;;;5093415;28;20255;-64
2022/02/24 09:04:37;;;;;;;3.67;3.10;;;8.80;95.90;;;;;;5093076;28;20226;-64
2022/02/24 09:07:04;;;;;;;5.30;3.10;;;8.90;95.60;;;;;;5093663;28;20224;-64
2022/02/24 09:09:31;;;;;;;6.65;3.40;;;8.90;95.50;;;;;;5092909;28;20304;-65
2022/02/24 09:11:58;;;;;;;6.72;2.92;;;9.00;95.30;;;;;;5092263;28;20314;-64
2022/02/24 09:14:27;;;;;;;11.77;9.50;;;9.10;95.30;;;;;;5093523;28;20228;-64
2022/02/24 09:16:54;;;;;;;10.68;6.80;;;9.30;95.40;;;;;;5092886;28;20220;-64
2022/02/24 09:19:20;;;;;;;5.25;4.47;;;9.30;95.20;;;;;;5108660;27;20227;-64
2022/02/24 09:21:48;;;;;;;8.50;3.85;;;9.40;95.20;;;;;;5113208;27;20235;-64
2022/02/24 09:24:15;;;;;;;5.28;2.65;;;9.50;95.10;;;;;;5113481;27;20659;-64
2022/02/24 09:26:42;;;;;;;4.30;2.95;;;9.50;95.10;;;;;;5113149;27;20223;-64
2022/02/24 09:29:09;;;;;;;3.90;3.08;;;9.60;95.00;;;;;;5113595;27;20222;-64
2022/02/24 09:31:37;;;;;;;5.28;3.10;;;9.60;94.90;;;;;;5112966;27;20234;-64
2022/02/24 09:34:04;;;;;;;7.00;3.65;;;9.60;94.80;;;;;;5113435;27;20236;-64
2022/02/24 09:36:32;;;;;;;3.88;2.78;;;9.70;95.00;;;;;;5113481;27;20233;-63
2022/02/24 09:38:59;;;;;;;3.42;3.13;;;9.70;95.00;;;;;;5113087;27;20223;-64
2022/02/24 09:41:26;;;;;;;7.93;3.00;;;9.70;94.90;;;;;;5113087;27;20231;-63
2022/02/24 09:43:54;;;;;;;4.63;2.83;;;9.70;94.90;;;;;;5112953;27;20700;-64
2022/02/24 09:46:21;;;;;;;14.57;9.75;;;9.80;95.00;;;;;;5113228;27;20907;-64
2022/02/24 09:48:50;;;;;;;7.50;6.20;;;9.80;95.10;;;;;;5112652;27;20226;-64
2022/02/24 09:51:19;;;;;;;6.18;3.28;;;9.90;95.20;;;;;;5113103;27;20237;-64
2022/02/24 09:53:48;;;;;;;6.78;3.38;;;10.00;94.50;;;;;;5112710;27;20222;-64
2022/02/24 09:56:18;;;;;;;4.63;3.17;;;10.00;94.40;;;;;;5108499;27;20222;-65
2022/02/24 09:58:46;;;;;;;6.05;2.72;;;10.10;94.40;;;;;;5092323;28;20700;-64
2022/02/24 10:01:14;;;;;;;4.78;2.50;;;10.20;94.40;;;;;;5092492;28;20239;-64
2022/02/24 10:03:44;;;;;;;3.92;2.80;;;10.30;94.80;;;;;;5092218;28;20219;-64
2022/02/24 10:06:13;;;;;;;8.00;3.40;;;10.30;94.20;;;;;;5092907;28;20251;-64
2022/02/24 10:08:42;;;;;;;7.78;3.55;;;10.30;94.20;;;;;;5092136;28;20681;-64
2022/02/24 10:11:21;;;;;;;3.47;2.80;;;10.30;94.00;;;;;;5092489;28;20231;-65
2022/02/24 10:13:59;;;;;;;7.25;3.50;;;10.30;94.00;;;;;;5092083;28;20224;-65
2022/02/24 10:16:25;;;;;;;7.13;3.60;;;10.40;94.00;;;;;;5092580;28;20220;-65
2022/02/24 10:18:52;;;;;;;5.90;3.35;;;10.30;94.00;;;;;;5103457;27;20227;-64
2022/02/24 10:21:21;;;;;;;5.82;3.65;;;10.40;94.10;;;;;;5112776;27;20238;-64
2022/02/24 10:23:50;;;;;;;3.88;2.50;;;10.30;94.10;;;;;;5114359;27;20298;-65
2022/02/24 10:26:18;;;;;;;5.90;3.35;;;10.40;94.20;;;;;;5117071;27;20233;-65
2022/02/24 10:28:48;;;;;;;5.95;2.97;;;10.50;94.10;;;;;;5116452;27;20223;-64
2022/02/24 10:31:18;;;;;;;7.00;3.17;;;10.60;94.10;;;;;;5116943;27;20226;-64
2022/02/24 10:33:46;;;;;;;4.32;2.88;;;10.70;94.20;;;;;;5116248;27;20699;-64
2022/02/24 10:36:16;;;;;;;5.82;3.70;;;10.80;93.90;;;;;;5102136;28;20681;-63
2022/02/24 10:38:47;;;;;;;7.28;4.88;;;10.80;93.90;;;;;;5096043;28;20215;-63
2022/02/24 10:41:14;;;;;;;12.45;7.32;;;10.80;93.70;;;;;;5096295;28;20234;-63
2022/02/24 10:43:42;;;;;;;9.45;4.75;;;10.80;93.60;;;;;;5095761;28;20560;-63
2022/02/24 10:46:13;;;;;;;4.60;3.70;;;10.80;93.70;;;;;;5096272;28;20231;-64
2022/02/24 10:48:51;;;;;;;8.20;2.78;;;10.80;93.70;;;;;;5095909;28;20311;-63
2022/02/24 10:51:23;;;;;;;7.18;3.45;;;10.90;93.70;;;;;;5095928;28;20230;-64
2022/02/24 10:54:02;;;;;;;6.28;3.78;;;11.00;93.70;;;;;;5095503;28;20234;-64
2022/02/24 10:56:34;;;;;;;3.40;2.95;;;11.00;93.60;;;;;;5095964;28;20853;-64
2022/02/24 10:59:01;;;;;;;6.95;3.85;;;11.10;93.70;;;;;;5112899;27;20219;-63
2022/02/24 11:01:29;;;;;;;6.07;3.20;;;11.20;93.60;;;;;;5116131;27;20435;-64
2022/02/24 11:03:58;;;;;;;6.13;5.53;;;11.20;93.60;;;;;;5115752;27;20242;-64
2022/02/24 11:06:27;;;;;;;5.78;3.75;;;11.30;93.60;;;;;;5116263;27;20230;-64
2022/02/24 11:08:56;;;;;;;12.30;8.30;;;11.30;93.50;;;;;;5115557;27;20226;-64
2022/02/24 11:11:26;;;;;;;11.23;5.18;;;11.30;93.70;;;;;;5115793;27;20230;-63
2022/02/24 11:13:54;;;;;;;9.48;4.88;;;11.30;93.60;;;;;;5115744;27;20272;-63
2022/02/24 11:16:22;;;;;;;7.05;3.78;;;11.30;93.50;;;;;;5115789;27;20219;-63
2022/02/24 11:18:50;;;;;;;9.23;3.40;;;11.40;93.60;;;;;;5115347;27;20223;-63
2022/02/24 11:21:18;;;;;;;5.03;3.13;;;11.40;93.70;;;;;;5115877;27;20561;-64
2022/02/24 11:23:47;;;;;;;6.90;3.20;;;11.50;93.50;;;;;;5115338;27;20710;-64
2022/02/24 11:26:31;;;;;;;10.52;3.20;;;11.40;93.60;;;;;;5115679;27;20621;-64
2022/02/24 11:29:05;;;;;;;6.88;4.13;;;11.40;93.50;;;;;;5115296;27;20356;-64
2022/02/24 11:31:42;;;;;;;3.90;2.95;;;11.30;93.40;;;;;;5115750;27;20687;-64
2022/02/24 11:34:09;;;;;;;4.35;3.40;;;11.30;93.50;;;;;;5115031;27;20309;-64
2022/02/24 11:36:40;;;;;;;4.63;3.10;;;11.30;93.60;;;;;;5115038;27;20222;-65
2022/02/24 11:39:10;;;;;;;4.25;3.65;;;11.40;93.50;;;;;;5115030;27;20284;-65
2022/02/24 11:41:52;;;;;;;7.90;6.85;;;11.50;93.70;;;;;;5115583;27;20261;-64
2022/02/24 11:44:35;;;;;;;7.15;4.47;;;11.40;93.50;;;;;;5115480;27;20351;-65
2022/02/24 11:47:05;;;;;;;6.05;3.63;;;11.40;93.30;;;;;;5115050;27;20230;-65
2022/02/24 11:50:07;;;;;;;5.35;3.10;;;11.50;93.40;;;;;;5115218;27;20314;-64
2022/02/24 11:52:49;;;;;;;4.70;3.22;;;11.50;93.60;;;;;;5115685;27;20233;-64
2022/02/24 11:55:45;;;;;;;3.95;3.40;;;11.60;93.60;;;;;;5115424;27;20276;-63
2022/02/24 11:58:41;;;;;;;4.32;2.83;;;11.60;93.50;;;;;;5104686;27;20219;-64
2022/02/24 12:01:16;;;;;;;7.15;3.60;;;11.70;93.40;;;;;;5094681;28;20224;-64
2022/02/24 12:04:04;;;;;;;4.28;2.45;;;11.70;93.40;;;;;;5094972;28;20238;-64
2022/02/24 12:06:44;;;;;;;5.57;2.97;;;11.70;93.50;;;;;;5094537;28;20216;-64
2022/02/24 12:09:17;;;;;;;5.22;3.28;;;11.80;93.40;;;;;;5094168;28;20312;-64
2022/02/24 12:11:46;;;;;;;10.15;8.02;;;11.70;93.20;;;;;;5094373;28;20227;-64
2022/02/24 12:14:41;;;;;;;9.13;7.28;;;11.70;93.40;;;;;;5094092;28;20706;-64
2022/02/24 12:17:10;;;;;;;9.82;8.82;;;11.70;93.40;;;;;;5094174;28;20281;-64
2022/02/24 12:19:42;;;;;;;8.63;6.68;;;11.70;93.30;;;;;;5112177;27;20704;-64
2022/02/24 12:22:37;;;;;;;5.00;4.53;;;11.80;93.40;;;;;;5114032;27;20516;-64
2022/02/24 12:25:17;;;;;;;8.07;3.72;;;11.80;93.40;;;;;;5090310;27;20234;-65
2022/02/24 12:27:47;;;;;;;5.30;3.40;;;11.90;93.40;;;;;;5115274;27;20219;-64
2022/02/24 12:30:21;;;;;;;4.72;4.10;;;11.80;93.50;;;;;;5114263;27;20223;-64
2022/02/24 12:32:51;;;;;;;4.22;3.33;;;11.80;93.40;;;;;;5114502;27;20227;-64
2022/02/24 12:35:19;;;;;;;6.75;4.85;;;11.90;93.50;;;;;;5114335;27;20312;-64
2022/02/24 12:37:47;;;;;;;6.07;3.85;;;11.90;93.60;;;;;;5114474;27;20287;-63
2022/02/24 12:40:27;;;;;;;6.05;3.42;;;11.90;93.60;;;;;;5113936;27;20222;-64
2022/02/24 12:42:54;;;;;;;6.65;3.55;;;11.90;93.60;;;;;;5113909;27;20223;-63
2022/02/24 12:45:23;;;;;;;4.15;2.65;;;11.80;93.50;;;;;;5114190;27;20246;-64
2022/02/24 12:47:51;;;;;;;6.95;4.25;;;11.80;93.60;;;;;;5113674;27;20254;-64
2022/02/24 12:50:23;;;;;;;4.00;3.25;;;11.80;93.80;;;;;;5113304;27;20305;-64
2022/02/24 12:52:50;;;;;;;6.38;3.42;;;11.90;93.90;;;;;;5114104;27;20229;-65
2022/02/24 12:55:18;;;;;;;5.38;2.90;;;11.90;93.90;;;;;;5113716;27;20279;-64
2022/02/24 12:57:46;;;;;;;9.40;3.75;;;11.90;93.90;;;;;;5107240;27;20592;-64
2022/02/24 13:00:14;;;;;;;4.95;2.63;;;11.90;93.90;;;;;;5093120;28;20243;-64
2022/02/24 13:02:42;;;;;;;9.05;4.32;;;11.90;93.80;;;;;;5093252;28;20234;-64